Pierceville, Kansas
Current Conditions -  °F | °C
As of 8:14 AM on Friday 24 Oct 2014 (Local Time) from KGCK Reporting Station
Haze Haze  
Wind Chill: 47°   Ceiling: Unl
Heat Index: 47°   Visibility: 4mi
Dew Point: 47°   Wind: 3mph
Humidity: 100%   Direction: 240°WSW
Pressure: 30.06"   Gusts: NA
Location:  37.88°N, 100.68°W
Report Text: KGCK 241314Z 24003KT 4SM BR CLR 08/08 A3006 RMK AO2 T00830083
Loading
Personal Weather Stations






























Interactive Weather Map
Tropical Storm Tracking
New forecast layout! Learn more

10-Day Weather Forecast

Advertisements
Track Severe Weather on mobile